METAR Data
IDs: Format: Raw Decoded Include TAF

Data at: 0449 UTC 03 Jul 2022

METAR for:KHXD (Hilton Head Arpt, SC, US)
Text:KHXD 030435Z AUTO 23003KT 10SM FEW070 27/24 A3004 RMK AO2
Temperature: 27.0°C ( 81°F)
Dewpoint: 24.0°C ( 75°F) [RH = 84%]
Pressure (altimeter):30.04 inches Hg (1017.4 mb)
Winds:from the SW (230 degrees) at 3 MPH (3 knots; 1.5 m/s)
Visibility:10 or more sm (16+ km)
Ceiling:at least 12,000 feet AGL
Clouds: few clouds at 7000 feet AGL
QC Flag:automated observation with no human augmentation

TAF for:KHXD (Hilton Head Arpt, SC, US)
Text:No data found